createdAt,value
2022-08-03T00:10:08.465Z,18.14
2022-08-03T00:25:51.315Z,18.18
2022-08-03T00:41:33.687Z,18.37
2022-08-03T00:57:16.645Z,18.35
2022-08-03T01:12:59.345Z,18.35
2022-08-03T01:28:42.111Z,18.5
2022-08-03T01:44:24.457Z,18.61
2022-08-03T02:00:06.493Z,18.67
2022-08-03T02:00:53.787Z,18.82
2022-08-03T02:16:35.788Z,18.79
2022-08-03T02:32:18.374Z,18.84
2022-08-03T02:48:01.084Z,18.89
2022-08-03T03:03:43.536Z,19.01
2022-08-03T03:19:25.619Z,19.09
2022-08-03T03:35:08.530Z,19.16
2022-08-03T03:50:51.073Z,18.98
2022-08-03T04:06:33.237Z,18.64
2022-08-03T04:22:15.604Z,18.48
2022-08-03T04:37:58.166Z,18.64
2022-08-03T04:53:40.745Z,19
2022-08-03T05:09:23.105Z,19.31
2022-08-03T05:25:05.193Z,19.73
2022-08-03T05:40:56.617Z,20.29
2022-08-03T05:56:29.784Z,20.99
2022-08-03T06:12:12.211Z,21.77
2022-08-03T06:27:54.590Z,22.73
2022-08-03T06:43:37.313Z,23.69
2022-08-03T06:59:19.333Z,24.61
2022-08-03T07:15:01.848Z,25.48
2022-08-03T07:30:44.108Z,26.26
2022-08-03T07:46:26.251Z,26.97
2022-08-03T08:02:08.934Z,27.69
2022-08-03T08:17:51.576Z,28.32
2022-08-03T08:33:33.576Z,29.45
2022-08-03T08:49:15.798Z,32.71
2022-08-03T09:04:57.764Z,35.34
2022-08-03T09:20:40.291Z,37.16
2022-08-03T09:36:23.008Z,38.84
2022-08-03T09:52:05.494Z,39.58
2022-08-03T10:07:47.914Z,39.37
2022-08-03T10:23:30.031Z,39.93
2022-08-03T10:39:12.709Z,40.38
2022-08-03T10:54:54.736Z,40.82
2022-08-03T11:10:37.220Z,39.75
2022-08-03T11:26:19.624Z,42.03
2022-08-03T11:42:02.266Z,42.44
2022-08-03T11:57:44.626Z,42.51
2022-08-03T12:13:26.692Z,42.93
2022-08-03T12:29:09.465Z,43.86
2022-08-03T12:44:51.495Z,45.04
2022-08-03T13:00:34.003Z,45.09
2022-08-03T13:16:16.020Z,45.81
2022-08-03T13:31:58.467Z,45.98
2022-08-03T13:47:40.626Z,45.65
2022-08-03T14:03:23.083Z,44.83
2022-08-03T14:19:05.195Z,44.84
2022-08-03T14:34:47.646Z,45.63
2022-08-03T14:50:29.875Z,45.06
2022-08-03T15:06:11.951Z,45.12
2022-08-03T15:21:54.649Z,44.41
2022-08-03T15:37:37.339Z,44.97
2022-08-03T15:53:19.509Z,44.95
2022-08-03T16:09:02.075Z,42.47
2022-08-03T16:24:43.969Z,40.49
2022-08-03T16:40:26.252Z,42.13
2022-08-03T16:56:08.681Z,42.09
2022-08-03T17:11:50.852Z,41.71
2022-08-03T17:28:41.290Z,40.66
2022-08-03T17:43:14.798Z,37.53
2022-08-03T17:58:57.138Z,35.34
2022-08-03T18:14:39.527Z,33.82
2022-08-03T18:30:21.956Z,32.31
2022-08-03T18:46:04.862Z,30.92
2022-08-03T19:01:49.832Z,29.72
2022-08-03T19:17:29.766Z,28.69
2022-08-03T19:33:12.394Z,27.73
2022-08-03T19:48:55.363Z,26.97
2022-08-03T20:04:37.638Z,26.28
2022-08-03T20:20:19.666Z,25.73
2022-08-03T20:36:01.720Z,25.2
2022-08-03T20:51:47.339Z,24.76
2022-08-03T21:23:09.717Z,23.89
2022-08-03T22:25:59.245Z,22.71
2022-08-03T22:41:48.721Z,22.6
2022-08-03T22:57:30.909Z,22.45
2022-08-03T23:13:05.879Z,22.26
2022-08-03T23:28:55.854Z,22.06
2022-08-03T23:44:31.522Z,21.76
